Pagina principale
METAR-TAF:

METAR-TAF

Aeroporti :

Annecy, Francia

latitudine: 45-55-45N, longitudine: 006-05-56E, altezza: 463 m

Osservazione

Il bollettino è stato emesso 28 minuti fa, alle 10:00 UTC
Vento 2 kt da direzioni variabili
Temperature 15°C
Umidità 63%
Pressione 1020 hPa
Visibilità 10 km o più
nessuna nube inferiore a 1500 m e nessun cumulonembo

METAR: LFLP 211000Z AUTO VRB02KT CAVOK 15/08 Q1020 NOSIG

Ora: 12:28 (10:28 UTC)

Previsione

Il bollettino è stato emesso 2 ore e 28 minuti fa, alle 08:00 UTC
Previsione valida dal 21 alle 09 UTC al 22 alle 09 UTC
Vento 4 kt da ovest
Visibilità 10 km o più
nessuna nube inferiore a 1500 m e nessun cumulonembo

TAF: LFLP 210800Z 2109/2209 26004KT CAVOK

Osservazioni e previsioni meteorologiche di più di 4000 aeroporti (messaggi METAR e TAF).

Le stazioni disponibili sono rappresentate dai dischi gialli e rossi sulla carta.

Puntare il mouse per vedere il nome della stazione.

Clicca sopra per visualizzare le osservazioni e previsioni meteorologiche.

Per cambiare la mappa : fare clic sui pulsanti verdi con una croce nera per ingrandire, il pulsante verde con un trattino per diminuire, o sulla freccia verde per le mappe adiacenti.


METAR-TAF: